Time;durP1;ratioP1;P1;durP2;ratioP2;P2;SDS_P1;SDS_P2;PMS_P1;PMS_P2;Temp;Humidity;BMP_temperature;BMP_pressure;BME280_temperature;BME280_humidity;BME280_pressure;Samples;Min_cycle;Max_cycle;Signal;HPM_P1;HPM_P2
2021/10/15 00:00:12;;;;;;;3.67;1.75;;;16.30;88.50;;;;;;4226461;27;20083;-58
2021/10/15 00:02:34;;;;;;;7.80;2.13;;;16.30;88.50;;;;;;4215772;27;20498;-59
2021/10/15 00:04:56;;;;;;;2.85;1.90;;;16.30;88.20;;;;;;4208878;28;20090;-59
2021/10/15 00:07:19;;;;;;;2.08;1.58;;;16.40;88.30;;;;;;4209355;28;20074;-59
2021/10/15 00:09:41;;;;;;;2.80;2.08;;;16.30;88.50;;;;;;4215448;27;20134;-59
2021/10/15 00:12:05;;;;;;;4.57;1.77;;;16.30;88.50;;;;;;4226442;27;20043;-58
2021/10/15 00:14:27;;;;;;;3.25;1.75;;;16.30;88.50;;;;;;4226111;27;20446;-59
2021/10/15 00:16:50;;;;;;;2.78;2.10;;;16.30;88.20;;;;;;4224830;27;20048;-59
2021/10/15 00:19:12;;;;;;;3.10;1.95;;;16.30;88.40;;;;;;4224396;27;20051;-58
2021/10/15 00:21:35;;;;;;;3.55;1.88;;;16.30;89.10;;;;;;4208541;28;20087;-58
2021/10/15 00:23:57;;;;;;;5.38;2.05;;;16.30;88.70;;;;;;4209073;28;20077;-58
2021/10/15 00:26:19;;;;;;;4.25;1.92;;;16.30;89.10;;;;;;4221570;27;20371;-57
2021/10/15 00:28:43;;;;;;;4.32;1.90;;;16.30;88.90;;;;;;4225763;27;20047;-57
2021/10/15 00:31:05;;;;;;;6.15;1.80;;;16.30;88.80;;;;;;4209274;28;20040;-58
2021/10/15 00:33:27;;;;;;;7.68;2.42;;;16.30;88.40;;;;;;4209150;28;20582;-57
2021/10/15 00:35:52;;;;;;;3.47;2.22;;;16.30;89.10;;;;;;4208802;28;20047;-58
2021/10/15 00:38:14;;;;;;;3.78;1.92;;;16.30;89.00;;;;;;4218369;27;20058;-57
2021/10/15 00:40:37;;;;;;;2.58;1.67;;;16.30;88.90;;;;;;4225287;27;20067;-58
2021/10/15 00:42:59;;;;;;;4.90;2.50;;;16.30;88.90;;;;;;4225776;27;20059;-57
2021/10/15 00:45:22;;;;;;;1.88;1.70;;;16.30;88.90;;;;;;4225974;27;20043;-57
2021/10/15 00:47:45;;;;;;;2.80;1.85;;;16.30;89.20;;;;;;4218665;27;20047;-58
2021/10/15 00:50:08;;;;;;;3.50;1.75;;;16.30;89.40;;;;;;4209029;28;20071;-57
2021/10/15 00:52:31;;;;;;;5.70;1.88;;;16.30;89.20;;;;;;4208607;28;20048;-58
2021/10/15 00:54:54;;;;;;;4.50;2.28;;;16.30;89.30;;;;;;4209024;27;20105;-58
2021/10/15 00:57:16;;;;;;;9.95;2.13;;;16.30;88.80;;;;;;4225382;27;20130;-58
2021/10/15 00:59:39;;;;;;;3.70;1.83;;;16.30;89.20;;;;;;4218530;27;20047;-57
2021/10/15 01:02:03;;;;;;;3.33;1.80;;;16.30;89.50;;;;;;4208417;28;20051;-58
2021/10/15 01:04:25;;;;;;;4.03;2.38;;;16.30;89.40;;;;;;4208365;28;20055;-57
2021/10/15 01:06:47;;;;;;;4.10;2.13;;;16.30;89.90;;;;;;4191824;28;20048;-58
2021/10/15 01:09:10;;;;;;;6.57;2.05;;;16.30;89.80;;;;;;4207340;28;20047;-57
2021/10/15 01:11:33;;;;;;;2.65;2.15;;;16.30;89.80;;;;;;4208014;28;20048;-57
2021/10/15 01:13:56;;;;;;;3.55;2.20;;;16.30;89.70;;;;;;4208372;28;20048;-58
2021/10/15 01:16:24;;;;;;;2.35;1.73;;;16.30;89.80;;;;;;4208381;28;20490;-58
2021/10/15 01:18:48;;;;;;;2.80;2.17;;;16.30;89.90;;;;;;4208135;28;20055;-58
2021/10/15 01:21:12;;;;;;;1.88;1.75;;;16.30;89.90;;;;;;4225026;27;20065;-57
2021/10/15 01:23:35;;;;;;;3.05;1.92;;;16.30;89.90;;;;;;4217910;27;20772;-57
2021/10/15 01:25:57;;;;;;;6.85;2.10;;;16.30;90.00;;;;;;4208233;28;20052;-58
2021/10/15 01:28:19;;;;;;;3.10;2.42;;;16.30;90.00;;;;;;4208283;28;20052;-58
2021/10/15 01:30:41;;;;;;;2.38;2.17;;;16.30;90.00;;;;;;4208316;28;20054;-58
2021/10/15 01:33:04;;;;;;;4.25;2.20;;;16.30;90.40;;;;;;4203988;28;20500;-57
2021/10/15 01:35:26;;;;;;;4.85;2.55;;;16.30;90.00;;;;;;4208265;28;20044;-58
2021/10/15 01:37:49;;;;;;;3.20;2.35;;;16.30;90.00;;;;;;4210711;28;20076;-58
2021/10/15 01:40:12;;;;;;;3.08;2.83;;;16.30;90.10;;;;;;4225070;27;20036;-58
2021/10/15 01:45:14;;;;;;;3.28;2.97;;;16.30;90.10;;;;;;4208090;28;20044;-58
2021/10/15 01:47:36;;;;;;;6.00;3.10;;;16.30;90.10;;;;;;4207521;28;20055;-58
2021/10/15 01:49:58;;;;;;;4.35;3.03;;;16.30;89.70;;;;;;4207234;28;20492;-58
2021/10/15 01:52:20;;;;;;;3.40;2.75;;;16.30;90.60;;;;;;4207177;28;20147;-58
2021/10/15 01:54:43;;;;;;;3.60;3.05;;;16.30;90.30;;;;;;4211637;27;20569;-57
2021/10/15 01:57:07;;;;;;;4.78;3.28;;;16.30;90.30;;;;;;4207617;28;20082;-57
2021/10/15 01:59:29;;;;;;;4.50;4.10;;;16.30;90.30;;;;;;4207552;28;20051;-58
2021/10/15 02:01:52;;;;;;;6.00;4.57;;;16.30;90.40;;;;;;4206501;28;20140;-59
2021/10/15 02:04:14;;;;;;;7.18;5.00;;;16.30;90.40;;;;;;4207667;28;20117;-58
2021/10/15 02:06:38;;;;;;;4.85;4.40;;;16.30;90.50;;;;;;4209033;28;20063;-59
2021/10/15 02:09:01;;;;;;;5.78;5.18;;;16.30;90.50;;;;;;4207790;28;20411;-59
2021/10/15 02:11:24;;;;;;;6.43;5.82;;;16.30;90.50;;;;;;4208075;28;20154;-59
2021/10/15 02:13:46;;;;;;;6.20;5.57;;;16.30;90.50;;;;;;4206930;28;20052;-58
2021/10/15 02:16:09;;;;;;;6.97;5.88;;;16.30;90.60;;;;;;4207875;28;20402;-59
2021/10/15 02:18:31;;;;;;;9.13;6.63;;;16.30;90.60;;;;;;4207581;28;20059;-57
2021/10/15 02:20:53;;;;;;;6.85;6.07;;;16.30;90.60;;;;;;4207646;28;20490;-59
2021/10/15 02:23:17;;;;;;;7.90;6.20;;;16.30;90.60;;;;;;4207994;28;20147;-58
2021/10/15 02:25:41;;;;;;;8.55;6.63;;;16.30;90.60;;;;;;4207242;28;20055;-58
2021/10/15 02:28:05;;;;;;;8.60;6.82;;;16.30;90.60;;;;;;4207789;28;20051;-59
2021/10/15 02:30:28;;;;;;;9.88;7.57;;;16.30;90.70;;;;;;4207677;28;20521;-59
2021/10/15 02:32:52;;;;;;;9.30;7.80;;;16.30;90.70;;;;;;4207762;28;20067;-58
2021/10/15 02:35:15;;;;;;;12.00;7.90;;;16.30;90.70;;;;;;4206458;28;20603;-59
2021/10/15 02:37:37;;;;;;;9.00;8.10;;;16.30;90.80;;;;;;4207488;28;20611;-58
2021/10/15 02:39:59;;;;;;;9.15;7.60;;;16.30;90.80;;;;;;4224130;27;20071;-58
2021/10/15 02:42:21;;;;;;;9.60;7.85;;;16.30;90.80;;;;;;4224314;27;20051;-58
2021/10/15 02:44:44;;;;;;;9.13;8.30;;;16.30;90.80;;;;;;4223772;27;20048;-58
2021/10/15 02:47:06;;;;;;;11.57;7.85;;;16.30;90.90;;;;;;4224324;27;20419;-59
2021/10/15 02:49:29;;;;;;;10.32;7.88;;;16.30;90.90;;;;;;4224244;27;20100;-58
2021/10/15 02:51:54;;;;;;;9.57;8.15;;;16.30;90.90;;;;;;4223804;27;20055;-58
2021/10/15 02:54:16;;;;;;;10.43;7.53;;;16.30;91.00;;;;;;4218374;27;20071;-59
2021/10/15 02:56:39;;;;;;;9.68;8.75;;;16.30;91.00;;;;;;4224109;27;20059;-59
2021/10/15 02:59:01;;;;;;;10.00;7.68;;;16.30;91.10;;;;;;4224663;27;20071;-58
2021/10/15 03:01:25;;;;;;;10.18;7.90;;;16.30;91.10;;;;;;4224289;27;20058;-58
2021/10/15 03:03:48;;;;;;;12.55;7.85;;;16.30;91.10;;;;;;4224866;27;20410;-58
2021/10/15 03:06:10;;;;;;;9.95;7.97;;;16.30;91.50;;;;;;4227285;27;20182;-59
2021/10/15 03:08:33;;;;;;;11.23;9.13;;;16.30;91.10;;;;;;4227520;27;20126;-59
2021/10/15 03:10:57;;;;;;;7.47;6.63;;;16.30;91.20;;;;;;4227205;27;20146;-58
2021/10/15 03:13:19;;;;;;;8.95;7.15;;;16.30;91.20;;;;;;4224612;27;20063;-58
2021/10/15 03:15:41;;;;;;;8.35;6.78;;;16.30;91.30;;;;;;4209674;28;20537;-59
2021/10/15 03:18:05;;;;;;;8.10;5.90;;;16.30;91.30;;;;;;4210330;28;20040;-59
2021/10/15 03:20:27;;;;;;;10.48;6.97;;;16.30;91.30;;;;;;4193414;28;20099;-58
2021/10/15 03:22:49;;;;;;;10.20;6.35;;;16.30;91.30;;;;;;4193132;28;20577;-59
2021/10/15 03:25:11;;;;;;;7.28;6.43;;;16.30;91.40;;;;;;4176950;28;20056;-58
2021/10/15 03:27:34;;;;;;;9.27;6.93;;;16.30;91.40;;;;;;4176995;28;20053;-58
2021/10/15 03:29:55;;;;;;;8.75;5.85;;;16.20;91.30;;;;;;4176550;28;20045;-57
2021/10/15 03:32:18;;;;;;;8.38;6.53;;;16.30;91.40;;;;;;4176778;28;20541;-57
2021/10/15 03:34:41;;;;;;;10.23;6.47;;;16.30;91.40;;;;;;4189385;28;20052;-59
2021/10/15 03:37:04;;;;;;;7.05;6.15;;;16.30;91.40;;;;;;4193373;28;20086;-58
2021/10/15 03:39:25;;;;;;;10.30;6.70;;;16.20;91.40;;;;;;4193048;28;20072;-57
2021/10/15 03:41:48;;;;;;;8.00;6.20;;;16.30;91.40;;;;;;4193156;28;20044;-58
2021/10/15 03:44:09;;;;;;;5.75;5.20;;;16.30;91.50;;;;;;4192516;28;20048;-58
2021/10/15 03:46:32;;;;;;;6.75;5.43;;;16.30;91.50;;;;;;4193123;28;20053;-58
2021/10/15 03:48:54;;;;;;;7.55;5.32;;;16.30;91.50;;;;;;4193019;28;20498;-57
2021/10/15 03:51:17;;;;;;;7.97;5.70;;;16.30;91.50;;;;;;4226612;27;20059;-58
2021/10/15 03:53:40;;;;;;;7.00;5.60;;;16.20;91.90;;;;;;4225887;27;20541;-58
2021/10/15 03:56:01;;;;;;;5.38;4.85;;;16.20;91.50;;;;;;4226564;27;20463;-58
2021/10/15 03:58:23;;;;;;;6.90;5.50;;;16.30;91.60;;;;;;4226572;27;20047;-58
2021/10/15 04:00:45;;;;;;;8.25;5.53;;;16.20;91.50;;;;;;4226457;27;20048;-58
2021/10/15 04:03:08;;;;;;;9.18;4.82;;;16.20;91.60;;;;;;4226175;27;20516;-58
2021/10/15 04:05:30;;;;;;;7.28;5.18;;;16.30;91.60;;;;;;4192575;28;20051;-58
2021/10/15 04:07:54;;;;;;;11.90;5.20;;;16.20;91.60;;;;;;4219159;27;20146;-58
2021/10/15 04:10:16;;;;;;;6.68;5.03;;;16.30;91.60;;;;;;4226345;27;20048;-57
2021/10/15 04:12:38;;;;;;;12.23;4.88;;;16.30;91.60;;;;;;4225965;27;20052;-58
2021/10/15 04:15:01;;;;;;;7.38;4.53;;;16.30;91.60;;;;;;4210405;27;20052;-57
2021/10/15 04:17:22;;;;;;;8.32;4.22;;;16.30;91.60;;;;;;4209262;28;21553;-58
2021/10/15 04:19:45;;;;;;;5.63;3.88;;;16.30;91.70;;;;;;4209560;28;20044;-57
2021/10/15 04:22:09;;;;;;;8.18;3.80;;;16.30;91.70;;;;;;4209241;28;20052;-58
2021/10/15 04:24:33;;;;;;;5.13;3.42;;;16.30;91.60;;;;;;4208925;28;20059;-57
2021/10/15 04:26:55;;;;;;;7.90;4.38;;;16.20;91.70;;;;;;4209127;28;20410;-58
2021/10/15 04:29:17;;;;;;;8.60;4.03;;;16.20;91.60;;;;;;4192230;28;20461;-58
2021/10/15 04:31:39;;;;;;;5.88;3.50;;;16.20;91.70;;;;;;4192329;28;20085;-58
2021/10/15 04:34:01;;;;;;;6.10;4.03;;;16.30;91.80;;;;;;4208513;28;20093;-57
2021/10/15 04:36:23;;;;;;;7.25;3.70;;;16.30;91.70;;;;;;4225610;27;20051;-58
2021/10/15 04:38:46;;;;;;;6.07;3.75;;;16.20;91.70;;;;;;4225271;27;20109;-57
2021/10/15 04:41:09;;;;;;;6.00;3.13;;;16.20;91.70;;;;;;4225921;27;20051;-58
2021/10/15 04:43:32;;;;;;;5.30;3.28;;;16.20;91.80;;;;;;4223629;27;20087;-59
2021/10/15 04:45:54;;;;;;;5.45;3.47;;;16.20;91.80;;;;;;4208781;28;20135;-58
2021/10/15 04:48:16;;;;;;;6.55;3.30;;;16.20;91.80;;;;;;4208825;28;20040;-58
2021/10/15 04:50:39;;;;;;;5.03;2.75;;;16.30;91.80;;;;;;4191945;28;20056;-59
2021/10/15 04:53:01;;;;;;;5.75;3.25;;;16.20;91.90;;;;;;4191683;28;20071;-57
2021/10/15 04:55:23;;;;;;;4.70;2.72;;;16.30;91.90;;;;;;4192211;28;20065;-59
2021/10/15 04:57:46;;;;;;;3.83;2.80;;;16.30;92.00;;;;;;4191813;28;20469;-57
2021/10/15 05:00:13;;;;;;;5.38;2.80;;;16.20;92.00;;;;;;4192169;28;20131;-59
2021/10/15 05:02:38;;;;;;;2.40;1.60;;;16.20;92.00;;;;;;4208316;28;20148;-58
2021/10/15 05:05:01;;;;;;;1.20;0.70;;;16.20;92.00;;;;;;4208653;28;20121;-62
2021/10/15 05:07:24;;;;;;;2.33;1.15;;;16.20;92.00;;;;;;4208728;28;20059;-58
2021/10/15 05:09:46;;;;;;;4.55;1.15;;;16.20;92.00;;;;;;4216508;27;20135;-58
2021/10/15 05:12:14;;;;;;;3.33;1.08;;;16.20;91.80;;;;;;4208114;28;20413;-58
2021/10/15 05:14:38;;;;;;;2.20;1.08;;;16.20;91.40;;;;;;4208008;28;20131;-58
2021/10/15 05:17:00;;;;;;;2.35;1.05;;;16.20;91.20;;;;;;4208358;28;20048;-58
2021/10/15 05:19:22;;;;;;;4.55;1.58;;;16.20;91.10;;;;;;4208082;28;20051;-58
2021/10/15 05:21:44;;;;;;;3.53;0.90;;;16.20;90.70;;;;;;4191696;28;20164;-58
2021/10/15 05:24:06;;;;;;;2.15;0.60;;;16.20;90.50;;;;;;4216051;27;20131;-57
2021/10/15 05:26:28;;;;;;;3.10;0.95;;;16.20;90.70;;;;;;4224533;27;20043;-58
2021/10/15 05:28:50;;;;;;;4.28;1.10;;;16.10;90.00;;;;;;4224809;27;20043;-57
2021/10/15 05:31:14;;;;;;;3.75;1.20;;;16.10;90.10;;;;;;4224945;27;20107;-58
2021/10/15 05:33:36;;;;;;;1.92;1.10;;;16.10;89.50;;;;;;4209937;27;20520;-58
2021/10/15 05:35:58;;;;;;;3.45;1.00;;;16.10;89.80;;;;;;4208235;28;20056;-58
2021/10/15 05:38:20;;;;;;;4.07;1.17;;;16.10;90.10;;;;;;4208469;28;20498;-58
2021/10/15 05:40:42;;;;;;;4.45;1.35;;;16.10;90.00;;;;;;4206513;28;20144;-59
2021/10/15 05:43:04;;;;;;;3.88;1.02;;;16.10;90.30;;;;;;4214272;27;20116;-57
2021/10/15 05:45:26;;;;;;;4.00;1.55;;;16.00;90.70;;;;;;4207981;28;20841;-58
2021/10/15 05:47:50;;;;;;;5.60;1.77;;;16.10;91.00;;;;;;4207977;28;20055;-57
2021/10/15 05:50:13;;;;;;;6.07;2.38;;;16.10;91.10;;;;;;4207848;28;20109;-57
2021/10/15 05:52:38;;;;;;;6.05;1.65;;;16.10;91.00;;;;;;4213692;27;20421;-58
2021/10/15 05:55:05;;;;;;;5.93;2.25;;;16.10;90.70;;;;;;4219821;27;20060;-55
2021/10/15 06:00:13;;;;;;;6.53;1.50;;;16.10;90.80;;;;;;4173306;28;20492;-57
2021/10/15 06:02:36;;;;;;;7.15;1.80;;;16.10;90.70;;;;;;4210253;27;20548;-55
2021/10/15 06:15:45;;;;;;;4.70;1.08;;;16.10;91.10;;;;;;4224329;27;20050;-56
2021/10/15 06:18:13;;;;;;;3.40;1.08;;;16.10;91.10;;;;;;4224879;27;20405;-56
2021/10/15 06:20:37;;;;;;;5.70;1.67;;;16.20;91.20;;;;;;4224044;27;20441;-58
2021/10/15 06:22:58;;;;;;;8.30;2.60;;;16.40;91.10;;;;;;4207706;28;20139;-57
2021/10/15 06:25:20;;;;;;;4.95;1.92;;;16.50;90.90;;;;;;4207659;28;20237;-56
2021/10/15 06:27:43;;;;;;;5.32;1.60;;;16.70;90.70;;;;;;4207532;28;20397;-56
2021/10/15 06:30:06;;;;;;;9.25;1.73;;;16.90;90.30;;;;;;4207486;28;20137;-57
2021/10/15 06:32:28;;;;;;;5.40;1.42;;;17.00;90.00;;;;;;4207631;28;20048;-55
2021/10/15 06:34:51;;;;;;;3.90;1.35;;;17.20;89.30;;;;;;4207838;28;20056;-58
2021/10/15 06:37:15;;;;;;;6.75;1.65;;;17.30;89.00;;;;;;4211369;27;20052;-56
2021/10/15 06:39:56;;;;;;;7.97;2.05;;;17.40;88.30;;;;;;4226915;27;20059;-58
2021/10/15 06:42:18;;;;;;;5.10;1.23;;;17.60;87.90;;;;;;4209768;28;20422;-57
2021/10/15 06:44:40;;;;;;;9.63;2.28;;;17.60;87.10;;;;;;4210508;28;20071;-58
2021/10/15 06:47:03;;;;;;;3.28;1.20;;;17.70;86.80;;;;;;4210889;28;20117;-55
2021/10/15 06:49:25;;;;;;;4.65;1.50;;;17.70;86.80;;;;;;4210571;28;20588;-56
2021/10/15 06:51:47;;;;;;;7.20;1.55;;;17.70;86.80;;;;;;4210409;28;20048;-57
2021/10/15 06:54:11;;;;;;;5.65;1.20;;;17.70;86.60;;;;;;4210461;28;20052;-57
2021/10/15 06:56:33;;;;;;;6.03;1.05;;;17.70;86.50;;;;;;4210744;28;20059;-57
2021/10/15 06:58:55;;;;;;;6.10;1.30;;;17.70;86.70;;;;;;4210466;28;20683;-57
2021/10/15 07:01:17;;;;;;;5.32;1.35;;;17.70;86.90;;;;;;4210022;28;20055;-57
2021/10/15 07:03:39;;;;;;;5.55;1.63;;;17.70;86.50;;;;;;4210522;28;20413;-58
2021/10/15 07:06:02;;;;;;;3.47;0.98;;;17.70;86.20;;;;;;4207291;28;20044;-56
2021/10/15 07:08:25;;;;;;;5.28;1.23;;;17.70;85.90;;;;;;4193603;28;20056;-57
2021/10/15 07:10:48;;;;;;;3.22;1.33;;;17.70;85.60;;;;;;4207376;28;20040;-57
2021/10/15 07:13:14;;;;;;;2.47;0.75;;;17.70;86.40;;;;;;4209777;28;20047;-57
2021/10/15 07:15:36;;;;;;;2.83;0.95;;;17.70;85.40;;;;;;4210055;28;20052;-57
2021/10/15 07:17:59;;;;;;;3.85;1.33;;;17.70;85.90;;;;;;4206847;28;20044;-55
2021/10/15 07:20:23;;;;;;;3.28;1.50;;;17.60;85.80;;;;;;4209623;28;20055;-59
2021/10/15 07:22:45;;;;;;;2.97;0.75;;;17.60;86.10;;;;;;4209057;28;20055;-58
2021/10/15 07:25:09;;;;;;;4.25;1.33;;;17.60;86.10;;;;;;4210082;28;20044;-56
2021/10/15 07:27:34;;;;;;;1.92;0.75;;;17.50;85.70;;;;;;4209598;28;20559;-58
2021/10/15 07:29:57;;;;;;;3.22;1.20;;;17.50;85.60;;;;;;4209817;28;20090;-55
2021/10/15 07:32:19;;;;;;;4.38;1.02;;;17.50;85.60;;;;;;4209895;28;20048;-57
2021/10/15 07:34:42;;;;;;;3.75;1.15;;;17.50;86.00;;;;;;4209830;28;20809;-56
2021/10/15 07:37:05;;;;;;;6.35;0.93;;;17.50;85.60;;;;;;4208853;28;20036;-58
2021/10/15 07:39:27;;;;;;;2.30;0.90;;;17.50;86.10;;;;;;4209003;28;20562;-57
2021/10/15 07:41:49;;;;;;;1.20;1.00;;;17.50;86.10;;;;;;4209803;28;20048;-55
2021/10/15 07:44:13;;;;;;;5.00;0.95;;;17.50;84.10;;;;;;4209638;28;20105;-54
2021/10/15 07:46:35;;;;;;;2.13;0.98;;;17.40;85.30;;;;;;4209573;28;20052;-56
2021/10/15 07:48:58;;;;;;;3.65;1.33;;;17.40;85.60;;;;;;4208998;28;20059;-56
2021/10/15 07:51:20;;;;;;;2.00;1.25;;;17.30;85.30;;;;;;4209433;28;20044;-54
2021/10/15 07:53:42;;;;;;;2.90;1.02;;;17.30;85.70;;;;;;4209552;28;20052;-55
2021/10/15 07:56:05;;;;;;;6.22;1.15;;;17.30;86.30;;;;;;4192472;28;20125;-56
2021/10/15 07:58:27;;;;;;;6.60;1.27;;;17.20;86.50;;;;;;4209675;28;20055;-57
2021/10/15 08:00:51;;;;;;;3.92;1.33;;;17.20;86.80;;;;;;4209809;28;20486;-57
2021/10/15 08:03:12;;;;;;;2.22;0.80;;;17.20;86.90;;;;;;4209625;28;20047;-57
2021/10/15 08:05:35;;;;;;;5.45;1.38;;;17.10;87.50;;;;;;4209558;28;20076;-54
2021/10/15 08:07:57;;;;;;;5.60;1.10;;;17.20;87.70;;;;;;4209471;28;20044;-55
2021/10/15 08:10:19;;;;;;;6.03;1.60;;;17.10;87.60;;;;;;4209670;28;20044;-57
2021/10/15 08:12:42;;;;;;;5.20;1.52;;;17.10;87.60;;;;;;4208942;28;20072;-54
2021/10/15 08:15:06;;;;;;;3.75;1.35;;;17.10;87.80;;;;;;4209276;28;20071;-56
2021/10/15 08:17:30;;;;;;;6.10;1.80;;;17.10;87.50;;;;;;4208452;28;20056;-58
2021/10/15 08:19:51;;;;;;;4.18;1.35;;;17.10;86.80;;;;;;4208960;28;20048;-56
2021/10/15 08:22:13;;;;;;;3.70;1.58;;;17.00;87.50;;;;;;4222258;27;20040;-53
2021/10/15 08:24:36;;;;;;;7.00;1.38;;;17.00;87.80;;;;;;4207374;28;20181;-56
2021/10/15 08:26:58;;;;;;;7.82;1.88;;;17.00;87.80;;;;;;4200208;28;20055;-54
2021/10/15 08:29:20;;;;;;;4.25;1.52;;;17.00;87.60;;;;;;4208806;28;20599;-54
2021/10/15 08:31:43;;;;;;;5.25;1.70;;;16.90;87.50;;;;;;4209036;28;20055;-56
2021/10/15 08:34:09;;;;;;;5.68;1.45;;;16.90;85.50;;;;;;4205696;28;20138;-54
2021/10/15 08:36:31;;;;;;;4.55;0.98;;;16.90;86.50;;;;;;4208542;28;20052;-59
2021/10/15 08:38:53;;;;;;;3.63;1.20;;;16.90;86.70;;;;;;4212488;27;20051;-58
2021/10/15 08:41:20;;;;;;;6.88;1.77;;;16.90;87.50;;;;;;4208519;28;20085;-54
2021/10/15 08:43:42;;;;;;;6.30;1.50;;;16.90;86.80;;;;;;4208516;28;20105;-55
2021/10/15 08:46:05;;;;;;;4.82;1.90;;;16.90;86.40;;;;;;4208834;28;20047;-54
2021/10/15 08:48:31;;;;;;;3.35;1.60;;;16.90;86.40;;;;;;4208939;28;20051;-57
2021/10/15 08:50:54;;;;;;;4.35;1.58;;;16.90;84.30;;;;;;4208877;28;20131;-54
2021/10/15 08:53:17;;;;;;;4.25;1.13;;;16.90;85.50;;;;;;4207885;28;20051;-54
2021/10/15 08:55:57;;;;;;;4.53;1.58;;;16.90;83.10;;;;;;4208173;28;20058;-56
2021/10/15 08:58:20;;;;;;;7.50;1.77;;;16.90;82.00;;;;;;4212454;28;20057;-55
2021/10/15 09:00:42;;;;;;;5.88;1.38;;;16.90;80.10;;;;;;4207312;28;20051;-54
2021/10/15 09:03:16;;;;;;;5.20;1.38;;;16.90;80.20;;;;;;4222680;28;20051;-56
2021/10/15 09:05:39;;;;;;;6.28;1.83;;;16.90;80.10;;;;;;4218873;28;20119;-57
2021/10/15 09:08:03;;;;;;;6.10;1.50;;;16.90;80.00;;;;;;4214319;28;20051;-57
2021/10/15 09:10:31;;;;;;;9.27;2.28;;;16.90;79.80;;;;;;4225463;27;20101;-56
2021/10/15 09:12:57;;;;;;;7.85;2.08;;;16.80;79.60;;;;;;4213147;28;20099;-55
2021/10/15 09:15:19;;;;;;;11.10;2.67;;;16.80;79.60;;;;;;4208322;28;20070;-57
2021/10/15 09:17:49;;;;;;;8.55;2.22;;;16.80;81.50;;;;;;4223690;27;20039;-57
2021/10/15 09:20:11;;;;;;;7.68;1.90;;;16.80;79.40;;;;;;4224852;27;20047;-56
2021/10/15 09:22:35;;;;;;;9.23;2.50;;;16.80;77.80;;;;;;4225168;27;20070;-56
2021/10/15 09:25:02;;;;;;;9.52;3.13;;;16.70;79.50;;;;;;4211824;27;20084;-57
2021/10/15 09:27:32;;;;;;;6.38;1.77;;;16.70;80.40;;;;;;4206560;28;20522;-56
2021/10/15 09:29:58;;;;;;;9.93;2.73;;;16.70;82.10;;;;;;4191129;28;20139;-58
2021/10/15 09:32:23;;;;;;;8.57;2.58;;;16.70;81.10;;;;;;4191556;28;20045;-57
2021/10/15 09:34:47;;;;;;;11.80;2.58;;;16.70;81.40;;;;;;4191675;28;20072;-57
2021/10/15 09:37:14;;;;;;;8.60;2.38;;;16.70;82.10;;;;;;4191398;28;20067;-56
2021/10/15 09:39:37;;;;;;;8.93;2.67;;;16.70;79.90;;;;;;4176193;28;20076;-57
2021/10/15 09:42:01;;;;;;;10.27;2.42;;;16.70;82.20;;;;;;4191349;28;20049;-57
2021/10/15 09:44:31;;;;;;;8.48;2.40;;;16.70;79.70;;;;;;4191371;28;20059;-57
2021/10/15 09:47:13;;;;;;;9.38;2.60;;;16.70;79.10;;;;;;4188239;28;20059;-56
2021/10/15 09:49:47;;;;;;;11.70;2.85;;;16.70;78.30;;;;;;4191187;28;20113;-57
2021/10/15 09:52:09;;;;;;;11.98;2.33;;;16.70;79.60;;;;;;4190276;28;20058;-56
2021/10/15 09:54:31;;;;;;;8.73;2.80;;;16.70;77.70;;;;;;4210059;28;20094;-56
2021/10/15 09:56:54;;;;;;;9.00;3.00;;;16.70;77.80;;;;;;4206945;28;20063;-56
2021/10/15 09:59:17;;;;;;;11.27;2.50;;;16.70;77.00;;;;;;4207823;28;20456;-55
2021/10/15 10:01:41;;;;;;;12.43;3.40;;;16.70;76.60;;;;;;4208035;28;20537;-56
2021/10/15 10:04:04;;;;;;;9.93;2.83;;;16.70;77.40;;;;;;4207857;28;20052;-57
2021/10/15 10:06:26;;;;;;;10.02;3.20;;;16.70;75.00;;;;;;4207932;28;20121;-58
2021/10/15 10:08:49;;;;;;;12.65;4.10;;;16.80;71.70;;;;;;4208042;28;20056;-59
2021/10/15 10:11:11;;;;;;;8.18;2.50;;;16.70;71.90;;;;;;4207910;28;20075;-57
2021/10/15 10:13:33;;;;;;;6.72;2.90;;;16.70;73.80;;;;;;4210253;28;20520;-57
2021/10/15 10:15:57;;;;;;;10.23;3.65;;;16.70;75.50;;;;;;4211628;28;20044;-55
2021/10/15 10:18:26;;;;;;;11.50;3.45;;;16.70;74.70;;;;;;4211091;28;20051;-56
2021/10/15 10:20:52;;;;;;;10.32;2.78;;;16.70;76.20;;;;;;4210825;28;20052;-59
2021/10/15 10:23:20;;;;;;;13.52;3.17;;;16.70;73.90;;;;;;4202231;28;20710;-56
2021/10/15 10:25:43;;;;;;;8.75;2.53;;;16.70;71.50;;;;;;4209966;28;20546;-59
2021/10/15 10:28:20;;;;;;;12.50;2.65;;;16.70;70.20;;;;;;4210725;28;20090;-57
2021/10/15 10:30:44;;;;;;;10.85;3.00;;;16.70;72.10;;;;;;4193675;28;20140;-56
2021/10/15 10:33:08;;;;;;;9.13;2.17;;;16.70;69.30;;;;;;4202526;28;20052;-56
2021/10/15 10:35:31;;;;;;;9.52;2.25;;;16.70;70.10;;;;;;4220668;28;20079;-54
2021/10/15 10:38:29;;;;;;;8.50;2.78;;;16.70;70.70;;;;;;4210837;28;20059;-56
2021/10/15 10:41:17;;;;;;;10.48;3.08;;;16.80;70.20;;;;;;4193482;28;20582;-58
2021/10/15 10:44:11;;;;;;;8.48;2.55;;;16.70;70.70;;;;;;4193619;28;20052;-57
2021/10/15 10:46:34;;;;;;;6.70;2.38;;;16.70;71.40;;;;;;4193513;28;20079;-56
2021/10/15 10:49:20;;;;;;;9.60;1.95;;;16.70;70.40;;;;;;4193859;28;20055;-57
2021/10/15 10:51:42;;;;;;;6.82;2.00;;;16.70;71.50;;;;;;4193238;28;20048;-55
2021/10/15 10:54:26;;;;;;;11.38;3.05;;;16.70;73.50;;;;;;4193673;28;20117;-57
2021/10/15 10:56:50;;;;;;;10.88;2.53;;;16.70;73.00;;;;;;4200828;28;20131;-57
2021/10/15 10:59:31;;;;;;;10.73;3.67;;;16.70;75.60;;;;;;4210314;28;20410;-56
2021/10/15 11:01:54;;;;;;;11.68;2.97;;;16.70;75.00;;;;;;4204147;28;20078;-57
2021/10/15 11:04:28;;;;;;;10.77;3.13;;;16.70;76.80;;;;;;4210160;28;20052;-57
2021/10/15 11:06:58;;;;;;;10.18;3.08;;;16.70;73.30;;;;;;4193149;28;20376;-56
2021/10/15 11:09:30;;;;;;;8.50;2.40;;;16.80;76.20;;;;;;4191745;28;20052;-56
2021/10/15 11:11:52;;;;;;;5.75;1.92;;;16.80;73.40;;;;;;4193239;28;20052;-57
2021/10/15 11:14:49;;;;;;;11.70;2.67;;;16.80;72.50;;;;;;4199397;28;20048;-57
2021/10/15 11:17:12;;;;;;;6.80;2.08;;;16.80;69.00;;;;;;4209928;28;20044;-57
2021/10/15 11:19:36;;;;;;;9.55;2.22;;;16.80;68.00;;;;;;4210394;28;20068;-56
2021/10/15 11:22:02;;;;;;;10.85;2.80;;;16.80;67.90;;;;;;4209924;28;20081;-54
2021/10/15 11:24:24;;;;;;;8.32;2.60;;;16.90;69.80;;;;;;4207637;28;20052;-56
2021/10/15 11:26:46;;;;;;;9.27;2.63;;;16.90;70.00;;;;;;4209885;28;20040;-52
2021/10/15 11:29:08;;;;;;;8.05;3.35;;;16.90;68.00;;;;;;4207569;28;20584;-55
2021/10/15 11:31:30;;;;;;;7.68;3.05;;;17.00;68.90;;;;;;4209942;28;20138;-52
2021/10/15 11:33:52;;;;;;;8.05;2.28;;;17.00;68.40;;;;;;4209737;28;20051;-55
2021/10/15 11:36:20;;;;;;;8.15;2.30;;;17.00;66.60;;;;;;4210014;28;20055;-55
2021/10/15 11:38:42;;;;;;;9.85;2.80;;;17.00;69.00;;;;;;4208654;28;20102;-56
2021/10/15 11:41:06;;;;;;;7.97;2.22;;;17.10;67.80;;;;;;4209862;28;20044;-53
2021/10/15 11:43:31;;;;;;;11.45;2.67;;;17.10;67.60;;;;;;4209668;28;20135;-55
2021/10/15 11:45:55;;;;;;;7.32;2.55;;;17.10;68.10;;;;;;4220651;27;20503;-56
2021/10/15 11:48:19;;;;;;;6.90;2.60;;;17.10;68.20;;;;;;4209708;28;20052;-56
2021/10/15 11:50:50;;;;;;;7.40;2.10;;;17.10;68.40;;;;;;4209894;28;20493;-55
2021/10/15 11:53:17;;;;;;;7.90;2.85;;;17.10;70.90;;;;;;4220622;27;20047;-58
2021/10/15 11:55:41;;;;;;;5.75;1.88;;;17.20;70.50;;;;;;4225987;27;20067;-58
2021/10/15 11:58:27;;;;;;;4.75;1.95;;;17.20;69.60;;;;;;4226848;27;20120;-59
2021/10/15 12:01:15;;;;;;;5.18;2.13;;;17.20;65.10;;;;;;4226430;27;20067;-57
2021/10/15 12:03:39;;;;;;;5.47;1.95;;;17.20;65.70;;;;;;4225890;27;20055;-56
2021/10/15 12:06:25;;;;;;;4.53;1.75;;;17.20;67.70;;;;;;4225505;27;20112;-57
2021/10/15 12:08:49;;;;;;;6.30;1.73;;;17.20;67.40;;;;;;4192104;28;20048;-58
2021/10/15 12:11:15;;;;;;;8.35;2.25;;;17.20;68.40;;;;;;4192619;28;20127;-59
2021/10/15 12:13:37;;;;;;;6.25;2.50;;;17.10;65.80;;;;;;4192952;28;20582;-57
2021/10/15 12:16:00;;;;;;;6.13;2.13;;;17.20;69.30;;;;;;4191655;28;20048;-57
2021/10/15 12:18:29;;;;;;;8.82;2.10;;;17.20;72.10;;;;;;4192658;28;20483;-58
2021/10/15 12:20:52;;;;;;;8.45;2.55;;;17.10;72.30;;;;;;4192039;28;20052;-58
2021/10/15 12:23:14;;;;;;;8.23;2.25;;;17.20;74.90;;;;;;4192510;28;20044;-59
2021/10/15 12:25:38;;;;;;;7.20;2.08;;;17.10;74.50;;;;;;4207655;28;20063;-58
2021/10/15 12:28:12;;;;;;;7.43;1.85;;;17.10;71.80;;;;;;4209098;28;20040;-57
2021/10/15 12:30:33;;;;;;;5.75;1.60;;;17.10;72.30;;;;;;4207356;28;20128;-57
2021/10/15 12:33:07;;;;;;;7.82;1.90;;;17.10;71.30;;;;;;4209253;28;20052;-57
2021/10/15 12:35:29;;;;;;;6.13;1.33;;;17.10;71.60;;;;;;4208756;28;20118;-58
2021/10/15 12:37:55;;;;;;;6.82;2.00;;;17.10;69.90;;;;;;4208408;28;20036;-58
2021/10/15 12:40:29;;;;;;;5.25;1.60;;;17.10;69.30;;;;;;4208796;28;20036;-57
2021/10/15 12:43:05;;;;;;;3.53;1.05;;;17.20;71.70;;;;;;4208481;28;20827;-58
2021/10/15 12:45:29;;;;;;;3.90;1.70;;;17.20;69.60;;;;;;4208460;28;20533;-58